createdAt,value
2022-09-14T00:00:58.478Z,97523.44
2022-09-14T00:03:33.846Z,97521.44
2022-09-14T00:06:06.590Z,97517.88
2022-09-14T00:08:33.079Z,97512.34
2022-09-14T00:11:00.469Z,97515.53
2022-09-14T00:13:26.805Z,97509.22
2022-09-14T00:15:53.134Z,97498.84
2022-09-14T00:18:19.450Z,97496.81
2022-09-14T00:20:45.782Z,97494.03
2022-09-14T00:23:12.085Z,97494.81
2022-09-14T00:25:38.428Z,97496.41
2022-09-14T00:28:04.801Z,97493.66
2022-09-14T00:30:31.126Z,97497.25
2022-09-14T00:32:57.435Z,97492.44
2022-09-14T00:35:23.769Z,97489.66
2022-09-14T00:37:51.225Z,97486.88
2022-09-14T00:40:18.785Z,97483.28
2022-09-14T00:42:45.127Z,97480.47
2022-09-14T00:45:21.346Z,97479.25
2022-09-14T00:47:48.048Z,97465.31
2022-09-14T00:50:14.499Z,97468.91
2022-09-14T00:52:41.804Z,97475.66
2022-09-14T00:55:12.196Z,97465.69
2022-09-14T00:57:56.641Z,97478.91
2022-09-14T01:00:23.798Z,97472.13
2022-09-14T01:02:50.223Z,97465.31
2022-09-14T01:05:16.714Z,97463.72
2022-09-14T01:08:02.095Z,97459.34
2022-09-14T01:10:31.604Z,97460.56
2022-09-14T01:13:16.804Z,97460.56
2022-09-14T01:15:56.805Z,97464.53
2022-09-14T01:18:31.699Z,97460.56
2022-09-14T01:20:58.680Z,97460.56
2022-09-14T01:23:40.209Z,97452.56
2022-09-14T01:26:09.318Z,97452.97
2022-09-14T01:28:36.525Z,97452.56
2022-09-14T01:31:03.511Z,97437.38
2022-09-14T01:33:35.117Z,97439.41
2022-09-14T01:36:01.725Z,97425.81
2022-09-14T01:38:35.627Z,97429.41
2022-09-14T01:41:03.001Z,97431.00
2022-09-14T01:43:40.695Z,97431.38
2022-09-14T01:46:10.190Z,97422.59
2022-09-14T01:48:43.189Z,97433.38
2022-09-14T01:51:10.939Z,97431.00
2022-09-14T01:53:41.774Z,97422.22
2022-09-14T01:56:15.258Z,97428.19
2022-09-14T01:58:55.133Z,97425.03
2022-09-14T02:01:25.228Z,97433.34
2022-09-14T02:03:52.583Z,97425.34
2022-09-14T02:06:21.813Z,97418.19
2022-09-14T02:08:48.157Z,97417.78
2022-09-14T02:11:14.497Z,97419.38
2022-09-14T02:13:40.820Z,97423.00
2022-09-14T02:16:07.254Z,97418.19
2022-09-14T02:18:33.602Z,97420.19
2022-09-14T02:21:01.647Z,97421.75
2022-09-14T02:23:27.971Z,97409.81
2022-09-14T02:25:54.457Z,97404.69
2022-09-14T02:28:20.810Z,97410.25
2022-09-14T02:31:06.423Z,97403.06
2022-09-14T02:33:40.485Z,97403.06
2022-09-14T02:36:12.395Z,97391.13
2022-09-14T02:38:38.665Z,97388.31
2022-09-14T02:41:17.223Z,97388.31
2022-09-14T02:43:46.531Z,97395.88
2022-09-14T02:46:22.085Z,97402.28
2022-09-14T02:48:52.111Z,97379.97
2022-09-14T02:51:18.461Z,97397.91
2022-09-14T02:53:49.563Z,97386.75
2022-09-14T02:56:15.917Z,97377.97
2022-09-14T02:58:42.694Z,97361.25
2022-09-14T03:01:10.622Z,97368.81
2022-09-14T03:03:36.983Z,97366.41
2022-09-14T03:06:03.578Z,97366.03
2022-09-14T03:08:29.976Z,97364.03
2022-09-14T03:10:56.435Z,97364.44
2022-09-14T03:13:22.816Z,97353.66
2022-09-14T03:15:49.198Z,97359.63
2022-09-14T03:18:15.590Z,97350.44
2022-09-14T03:20:41.969Z,97356.00
2022-09-14T03:23:09.172Z,97352.81
2022-09-14T03:25:39.858Z,97361.94
2022-09-14T03:28:06.355Z,97347.59
2022-09-14T03:30:32.771Z,97356.41
2022-09-14T03:32:59.242Z,97362.69
2022-09-14T03:35:25.569Z,97351.91
2022-09-14T03:37:51.897Z,97355.91
2022-09-14T03:40:21.873Z,97347.94
2022-09-14T03:42:49.128Z,97344.34
2022-09-14T03:45:15.690Z,97346.03
2022-09-14T03:47:42.025Z,97338.78
2022-09-14T03:50:08.795Z,97335.94
2022-09-14T03:52:35.497Z,97338.38
2022-09-14T03:55:01.876Z,97334.47
2022-09-14T03:57:28.196Z,97332.47
2022-09-14T03:59:54.537Z,97335.25
2022-09-14T04:02:20.901Z,97335.69
2022-09-14T04:04:48.267Z,97336.09
2022-09-14T04:07:17.355Z,97335.22
2022-09-14T04:09:43.701Z,97328.81
2022-09-14T04:12:10.106Z,97328.00
2022-09-14T04:14:36.436Z,97323.63
2022-09-14T04:17:02.762Z,97331.59
2022-09-14T04:19:29.091Z,97322.84
2022-09-14T04:21:55.407Z,97329.72
2022-09-14T04:24:23.725Z,97333.59
2022-09-14T04:26:51.832Z,97326.03
2022-09-14T04:29:18.155Z,97318.88
2022-09-14T04:31:44.624Z,97337.28
2022-09-14T04:34:11.794Z,97328.03
2022-09-14T04:36:38.147Z,97319.66
2022-09-14T04:39:04.587Z,97314.47
2022-09-14T04:41:31.053Z,97319.25
2022-09-14T04:43:59.774Z,97326.06
2022-09-14T04:46:27.702Z,97326.88
2022-09-14T04:48:54.096Z,97322.88
2022-09-14T04:51:21.567Z,97324.06
2022-09-14T04:53:49.931Z,97325.63
2022-09-14T04:56:16.301Z,97324.81
2022-09-14T04:58:43.365Z,97322.03
2022-09-14T05:01:10.393Z,97322.44
2022-09-14T05:03:38.896Z,97316.13
2022-09-14T05:06:05.844Z,97318.16
2022-09-14T05:08:32.867Z,97309.31
2022-09-14T05:10:59.236Z,97319.22
2022-09-14T05:13:25.970Z,97316.81
2022-09-14T05:15:52.365Z,97313.28
2022-09-14T05:18:18.776Z,97315.66
2022-09-14T05:20:45.113Z,97312.47
2022-09-14T05:23:11.435Z,97314.88
2022-09-14T05:25:37.794Z,97319.28
2022-09-14T05:28:04.127Z,97314.53
2022-09-14T05:30:30.473Z,97315.31
2022-09-14T05:32:58.167Z,97310.16
2022-09-14T05:35:24.621Z,97314.50
2022-09-14T05:37:50.951Z,97303.34
2022-09-14T05:40:17.418Z,97306.94
2022-09-14T05:42:43.812Z,97305.41
2022-09-14T05:45:10.358Z,97309.38
2022-09-14T05:47:39.120Z,97294.69
2022-09-14T05:50:05.984Z,97302.66
2022-09-14T05:52:32.316Z,97311.03
2022-09-14T05:54:58.669Z,97302.25
2022-09-14T05:57:25.005Z,97303.06
2022-09-14T05:59:51.369Z,97303.44
2022-09-14T06:02:18.404Z,97295.50
2022-09-14T06:04:44.979Z,97295.13
2022-09-14T06:07:19.176Z,97299.91
2022-09-14T06:09:45.714Z,97294.31
2022-09-14T06:12:12.160Z,97305.06
2022-09-14T06:14:38.533Z,97299.47
2022-09-14T06:17:05.748Z,97295.50
2022-09-14T06:19:32.089Z,97295.09
2022-09-14T06:21:58.485Z,97293.91
2022-09-14T06:24:25.006Z,97295.09
2022-09-14T06:26:51.335Z,97294.72
2022-09-14T06:29:17.686Z,97289.91
2022-09-14T06:31:44.077Z,97291.91
2022-09-14T06:34:10.505Z,97290.69
2022-09-14T06:36:36.905Z,97283.53
2022-09-14T06:39:03.302Z,97282.31
2022-09-14T06:41:32.545Z,97294.66
2022-09-14T06:43:59.140Z,97299.03
2022-09-14T06:46:26.645Z,97289.03
2022-09-14T06:48:55.195Z,97296.59
2022-09-14T06:51:23.422Z,97297.41
2022-09-14T06:53:49.861Z,97295.44
2022-09-14T06:56:16.284Z,97297.00
2022-09-14T06:58:42.609Z,97288.63
2022-09-14T07:01:13.038Z,97294.19
2022-09-14T07:03:39.453Z,97292.59
2022-09-14T07:06:06.531Z,97298.56
2022-09-14T07:08:36.267Z,97294.56
2022-09-14T07:11:02.665Z,97296.91
2022-09-14T07:13:29.122Z,97299.28
2022-09-14T07:15:55.735Z,97307.25
2022-09-14T07:18:22.533Z,97303.25
2022-09-14T07:20:49.522Z,97307.59
2022-09-14T07:23:15.925Z,97306.47
2022-09-14T07:25:42.393Z,97309.25
2022-09-14T07:28:08.719Z,97309.59
2022-09-14T07:30:35.731Z,97304.72
2022-09-14T07:33:02.098Z,97305.97
2022-09-14T07:35:28.447Z,97298.81
2022-09-14T07:37:54.885Z,97302.47
2022-09-14T07:40:23.527Z,97295.63
2022-09-14T07:42:53.345Z,97300.00
2022-09-14T07:45:23.175Z,97308.00
2022-09-14T07:47:49.509Z,97292.81
2022-09-14T07:50:15.989Z,97306.41
2022-09-14T07:52:42.325Z,97301.66
2022-09-14T07:55:09.020Z,97301.66
2022-09-14T07:57:55.188Z,97306.41
2022-09-14T08:00:22.027Z,97308.00
2022-09-14T08:02:52.215Z,97301.13
2022-09-14T08:05:19.751Z,97300.28
2022-09-14T08:07:46.077Z,97299.81
2022-09-14T08:10:12.415Z,97302.97
2022-09-14T08:12:38.750Z,97301.81
2022-09-14T08:15:05.385Z,97293.25
2022-09-14T08:17:31.790Z,97302.84
2022-09-14T08:19:58.141Z,97304.38
2022-09-14T08:22:25.552Z,97302.09
2022-09-14T08:24:52.025Z,97305.38
2022-09-14T08:27:18.353Z,97312.47
2022-09-14T08:29:44.701Z,97299.19
2022-09-14T08:32:11.704Z,97301.53
2022-09-14T08:34:38.066Z,97300.16
2022-09-14T08:37:04.417Z,97301.00
2022-09-14T08:39:30.775Z,97299.84
2022-09-14T08:41:58.511Z,97303.44
2022-09-14T08:44:24.831Z,97302.19
2022-09-14T08:46:52.027Z,97306.59
2022-09-14T08:49:20.899Z,97308.44
2022-09-14T08:51:47.254Z,97310.81
2022-09-14T08:54:13.602Z,97303.75
2022-09-14T08:56:44.644Z,97298.44
2022-09-14T08:59:17.819Z,97297.63
2022-09-14T09:01:47.195Z,97291.06
2022-09-14T09:04:17.504Z,97284.59
2022-09-14T09:06:53.145Z,97284.09
2022-09-14T09:09:22.940Z,97278.06
2022-09-14T09:11:50.056Z,97282.03
2022-09-14T09:14:24.025Z,97284.28
2022-09-14T09:16:51.366Z,97283.00
2022-09-14T09:19:19.411Z,97280.06
2022-09-14T09:21:46.028Z,97277.78
2022-09-14T09:24:31.080Z,97274.63
2022-09-14T09:26:58.720Z,97272.09
2022-09-14T09:29:25.091Z,97278.09
2022-09-14T09:31:52.224Z,97274.03
2022-09-14T09:34:21.426Z,97277.13
2022-09-14T09:36:48.200Z,97275.34
2022-09-14T09:39:14.623Z,97277.00
2022-09-14T09:41:45.217Z,97271.53
2022-09-14T09:44:11.605Z,97281.22
2022-09-14T09:46:38.844Z,97274.38
2022-09-14T09:49:14.591Z,97280.13
2022-09-14T09:51:40.927Z,97276.13
2022-09-14T09:54:13.340Z,97275.16
2022-09-14T09:56:59.984Z,97270.63
2022-09-14T09:59:32.420Z,97268.88
2022-09-14T10:02:17.421Z,97270.47
2022-09-14T10:04:56.589Z,97269.03
2022-09-14T10:07:22.924Z,97266.88
2022-09-14T10:09:58.488Z,97270.47
2022-09-14T10:12:24.819Z,97274.13
2022-09-14T10:14:51.201Z,97267.31
2022-09-14T10:17:18.141Z,97273.47
2022-09-14T10:19:52.308Z,97276.97
2022-09-14T10:22:24.290Z,97259.81
2022-09-14T10:24:57.128Z,97266.19
2022-09-14T10:27:37.718Z,97257.44
2022-09-14T10:30:04.700Z,97242.69
2022-09-14T10:32:31.227Z,97242.22
2022-09-14T10:34:57.745Z,97239.38
2022-09-14T10:37:37.412Z,97240.91
2022-09-14T10:40:16.840Z,97236.97
2022-09-14T10:42:51.951Z,97239.72
2022-09-14T10:45:24.320Z,97242.44
2022-09-14T10:48:09.867Z,97258.81
2022-09-14T10:50:36.421Z,97255.66
2022-09-14T10:53:02.798Z,97248.81
2022-09-14T10:55:36.851Z,97250.28
2022-09-14T10:58:07.378Z,97254.16
2022-09-14T11:00:37.072Z,97245.84
2022-09-14T11:03:22.117Z,97245.13
2022-09-14T11:06:02.663Z,97245.63
2022-09-14T11:08:33.278Z,97248.69
2022-09-14T11:11:11.426Z,97239.28
2022-09-14T11:13:44.270Z,97246.03
2022-09-14T11:16:29.767Z,97233.63
2022-09-14T11:19:11.734Z,97238.66
2022-09-14T11:21:44.198Z,97242.34
2022-09-14T11:24:16.335Z,97244.75
2022-09-14T11:26:43.789Z,97242.00
2022-09-14T11:29:28.988Z,97240.56
2022-09-14T11:32:19.383Z,97240.69
2022-09-14T11:34:57.840Z,97247.59
2022-09-14T11:37:30.954Z,97240.19
2022-09-14T11:40:06.989Z,97249.63
2022-09-14T11:42:35.325Z,97246.06
2022-09-14T11:45:21.919Z,97240.38
2022-09-14T11:47:51.401Z,97243.59
2022-09-14T11:50:25.679Z,97243.59
2022-09-14T11:52:56.425Z,97243.25
2022-09-14T11:55:27.669Z,97238.19
2022-09-14T11:57:54.035Z,97243.41
2022-09-14T12:00:26.631Z,97237.44
2022-09-14T12:02:56.082Z,97235.97
2022-09-14T12:05:22.423Z,97240.03
2022-09-14T12:07:50.186Z,97233.41
2022-09-14T12:10:19.521Z,97227.47
2022-09-14T12:12:55.782Z,97241.84
2022-09-14T12:15:30.984Z,97227.66
2022-09-14T12:18:06.495Z,97228.63
2022-09-14T12:20:45.543Z,97228.09
2022-09-14T12:23:21.024Z,97220.69
2022-09-14T12:26:12.464Z,97225.88
2022-09-14T12:28:48.714Z,97216.66
2022-09-14T12:31:31.011Z,97222.97
2022-09-14T12:34:05.074Z,97214.31
2022-09-14T12:36:37.387Z,97221.09
2022-09-14T12:39:19.911Z,97217.47
2022-09-14T12:41:46.307Z,97216.72
2022-09-14T12:44:31.732Z,97213.94
2022-09-14T12:46:58.100Z,97221.31
2022-09-14T12:49:26.236Z,97220.19
2022-09-14T12:51:52.667Z,97219.31
2022-09-14T12:54:25.199Z,97225.09
2022-09-14T12:56:57.293Z,97205.50
2022-09-14T12:59:44.781Z,97204.72
2022-09-14T13:02:23.535Z,97217.56
2022-09-14T13:04:52.645Z,97211.66
2022-09-14T13:07:19.547Z,97209.19
2022-09-14T13:09:47.748Z,97207.53
2022-09-14T13:12:14.266Z,97208.38
2022-09-14T13:14:40.593Z,97204.31
2022-09-14T13:17:06.945Z,97203.88
2022-09-14T13:19:33.505Z,97204.25
2022-09-14T13:22:00.565Z,97209.09
2022-09-14T13:24:37.322Z,97207.53
2022-09-14T13:27:03.665Z,97199.38
2022-09-14T13:29:31.086Z,97200.66
2022-09-14T13:32:03.083Z,97196.25
2022-09-14T13:34:30.784Z,97188.41
2022-09-14T13:36:57.313Z,97179.13
2022-09-14T13:39:24.657Z,97178.09
2022-09-14T13:41:51.020Z,97167.97
2022-09-14T13:44:17.347Z,97161.84
2022-09-14T13:46:43.722Z,97169.56
2022-09-14T13:49:10.305Z,97158.00
2022-09-14T13:51:36.843Z,97164.09
2022-09-14T13:54:26.589Z,97157.44
2022-09-14T13:57:12.381Z,97155.81
2022-09-14T13:59:59.406Z,97160.28
2022-09-14T14:02:26.004Z,97158.31
2022-09-14T14:04:52.406Z,97151.97
2022-09-14T14:07:22.298Z,97146.66
2022-09-14T14:09:52.165Z,97141.53
2022-09-14T14:12:28.169Z,97140.34
2022-09-14T14:14:58.820Z,97138.50
2022-09-14T14:17:28.240Z,97141.69
2022-09-14T14:19:55.363Z,97138.91
2022-09-14T14:22:26.260Z,97138.13
2022-09-14T14:27:42.999Z,97128.91
2022-09-14T14:30:13.792Z,97134.84
2022-09-14T14:32:40.349Z,97129.75
2022-09-14T14:35:14.692Z,97135.78
2022-09-14T14:37:41.011Z,97128.16
2022-09-14T14:40:08.301Z,97132.47
2022-09-14T14:42:35.051Z,97126.53
2022-09-14T14:45:01.464Z,97119.72
2022-09-14T14:47:27.780Z,97118.16
2022-09-14T14:49:54.106Z,97111.72
2022-09-14T14:52:20.424Z,97113.31
2022-09-14T14:54:46.757Z,97108.63
2022-09-14T14:57:13.379Z,97121.81
2022-09-14T14:59:39.809Z,97123.75
2022-09-14T15:02:06.859Z,97131.38
2022-09-14T15:04:33.199Z,97123.38
2022-09-14T15:06:59.518Z,97129.34
2022-09-14T15:09:27.322Z,97120.13
2022-09-14T15:11:56.703Z,97128.38
2022-09-14T15:14:26.736Z,97129.09
2022-09-14T15:16:57.770Z,97119.91
2022-09-14T15:19:24.570Z,97127.91
2022-09-14T15:21:50.995Z,97135.03
2022-09-14T15:24:17.319Z,97127.78
2022-09-14T15:26:43.657Z,97122.91
2022-09-14T15:29:10.945Z,97118.44
2022-09-14T15:31:37.367Z,97115.75
2022-09-14T15:34:03.701Z,97118.94
2022-09-14T15:36:35.816Z,97110.50
2022-09-14T15:39:02.247Z,97120.41
2022-09-14T15:41:28.595Z,97111.97
2022-09-14T15:43:54.919Z,97102.69
2022-09-14T15:46:21.275Z,97098.31
2022-09-14T15:48:47.604Z,97108.88
2022-09-14T15:51:13.952Z,97109.22
2022-09-14T15:53:40.312Z,97095.09
2022-09-14T15:56:13.066Z,97088.97
2022-09-14T15:58:39.401Z,97092.81
2022-09-14T16:01:09.664Z,97082.88
2022-09-14T16:03:36.028Z,97080.13
2022-09-14T16:06:02.385Z,97094.53
2022-09-14T16:08:28.785Z,97093.00
2022-09-14T16:10:59.008Z,97103.13
2022-09-14T16:13:25.366Z,97116.09
2022-09-14T16:15:56.681Z,97106.03
2022-09-14T16:18:25.353Z,97107.47
2022-09-14T16:20:51.741Z,97115.59
2022-09-14T16:23:18.070Z,97107.44
2022-09-14T16:25:44.451Z,97103.09
2022-09-14T16:28:10.867Z,97112.34
2022-09-14T16:30:37.352Z,97113.59
2022-09-14T16:33:03.732Z,97101.19
2022-09-14T16:35:30.091Z,97104.66
2022-09-14T16:37:56.429Z,97098.38
2022-09-14T16:40:22.833Z,97101.06
2022-09-14T16:42:50.861Z,97096.97
2022-09-14T16:45:17.233Z,97095.16
2022-09-14T16:47:44.551Z,97094.50
2022-09-14T16:50:10.873Z,97094.31
2022-09-14T16:52:37.205Z,97092.06
2022-09-14T16:55:03.602Z,97087.75
2022-09-14T16:57:29.984Z,97084.88
2022-09-14T16:59:56.333Z,97081.13
2022-09-14T17:02:22.813Z,97087.09
2022-09-14T17:04:49.214Z,97085.94
2022-09-14T17:07:15.595Z,97072.50
2022-09-14T17:09:42.020Z,97071.84
2022-09-14T17:12:08.549Z,97069.06
2022-09-14T17:14:34.929Z,97072.75
2022-09-14T17:17:01.281Z,97058.25
2022-09-14T17:19:27.665Z,97059.03
2022-09-14T17:21:54.173Z,97061.50
2022-09-14T17:24:20.731Z,97059.31
2022-09-14T17:26:47.211Z,97067.59
2022-09-14T17:32:36.013Z,97086.31
2022-09-14T17:35:02.802Z,97073.47
2022-09-14T17:37:29.639Z,97076.34
2022-09-14T17:40:02.116Z,97071.38
2022-09-14T17:42:28.455Z,97077.53
2022-09-14T17:44:54.843Z,97084.72
2022-09-14T17:47:21.875Z,97089.91
2022-09-14T17:49:48.277Z,97083.53
2022-09-14T17:52:14.653Z,97077.94
2022-09-14T17:54:41.460Z,97083.91
2022-09-14T17:57:07.849Z,97095.94
2022-09-14T17:59:34.221Z,97085.59
2022-09-14T18:02:00.614Z,97091.56
2022-09-14T18:04:26.962Z,97092.75
2022-09-14T18:06:53.280Z,97100.34
2022-09-14T18:09:20.529Z,97109.47
2022-09-14T18:11:46.923Z,97101.88
2022-09-14T18:14:13.626Z,97105.44
2022-09-14T18:16:40.202Z,97107.81
2022-09-14T18:19:06.535Z,97116.19
2022-09-14T18:21:32.864Z,97098.22
2022-09-14T18:23:59.181Z,97103.06
2022-09-14T18:26:25.496Z,97105.44
2022-09-14T18:28:53.421Z,97097.06
2022-09-14T18:31:20.043Z,97110.16
2022-09-14T18:33:47.142Z,97105.44
2022-09-14T18:36:15.094Z,97103.38
2022-09-14T18:38:41.604Z,97108.53
2022-09-14T18:41:08.263Z,97112.56
2022-09-14T18:43:34.642Z,97124.16
2022-09-14T18:46:02.485Z,97134.53
2022-09-14T18:48:29.018Z,97133.66
2022-09-14T18:50:55.347Z,97142.03
2022-09-14T18:53:21.666Z,97141.53
2022-09-14T18:55:48.154Z,97141.88
2022-09-14T18:58:14.477Z,97135.06
2022-09-14T19:00:47.489Z,97125.81
2022-09-14T19:03:13.880Z,97130.56
2022-09-14T19:05:41.006Z,97128.47
2022-09-14T19:08:07.998Z,97119.69
2022-09-14T19:10:37.648Z,97124.34
2022-09-14T19:13:04.454Z,97118.66
2022-09-14T19:15:32.732Z,97129.28
2022-09-14T19:17:59.270Z,97131.47
2022-09-14T19:20:31.296Z,97143.31
2022-09-14T19:23:09.676Z,97136.13
2022-09-14T19:25:39.199Z,97131.69
2022-09-14T19:28:05.605Z,97141.28
2022-09-14T19:30:32.354Z,97145.38
2022-09-14T19:32:59.554Z,97154.47
2022-09-14T19:35:26.604Z,97155.41
2022-09-14T19:37:52.945Z,97160.31
2022-09-14T19:40:19.733Z,97152.53
2022-09-14T19:42:46.178Z,97153.00
2022-09-14T19:45:14.832Z,97155.97
2022-09-14T19:47:41.161Z,97152.84
2022-09-14T19:50:09.103Z,97151.47
2022-09-14T19:52:35.432Z,97150.03
2022-09-14T19:55:01.745Z,97155.25
2022-09-14T19:57:28.106Z,97151.00
2022-09-14T19:59:54.419Z,97156.97
2022-09-14T20:02:20.942Z,97152.94
2022-09-14T20:04:47.352Z,97153.88
2022-09-14T20:07:13.683Z,97156.97
2022-09-14T20:09:39.995Z,97160.94
2022-09-14T20:12:06.324Z,97155.09
2022-09-14T20:14:32.644Z,97160.19
2022-09-14T20:16:59.086Z,97166.66
2022-09-14T20:19:26.516Z,97162.41
2022-09-14T20:21:53.091Z,97156.69
2022-09-14T20:24:20.411Z,97161.88
2022-09-14T20:26:47.179Z,97158.00
2022-09-14T20:29:13.584Z,97150.34
2022-09-14T20:31:39.903Z,97150.72
2022-09-14T20:34:06.239Z,97145.13
2022-09-14T20:36:32.575Z,97144.31
2022-09-14T20:38:59.403Z,97143.13
2022-09-14T20:41:27.109Z,97156.22
2022-09-14T20:43:53.538Z,97157.81
2022-09-14T20:46:23.419Z,97165.09
2022-09-14T20:48:49.855Z,97152.78
2022-09-14T20:54:02.972Z,97160.47
2022-09-14T20:56:31.070Z,97159.22
2022-09-14T20:58:58.035Z,97167.19
2022-09-14T21:01:27.863Z,97161.22
2022-09-14T21:03:54.362Z,97160.81
2022-09-14T21:06:21.857Z,97163.25
2022-09-14T21:08:48.199Z,97166.47
2022-09-14T21:11:12.011Z,97157.19
2022-09-14T21:11:15.018Z,97175.63
2022-09-14T21:13:41.385Z,97172.84
2022-09-14T21:16:11.545Z,97176.81
2022-09-14T21:18:37.909Z,97179.63
2022-09-14T21:21:07.657Z,97170.06
2022-09-14T21:23:33.975Z,97179.22
2022-09-14T21:26:00.314Z,97179.63
2022-09-14T21:28:26.648Z,97183.59
2022-09-14T21:30:53.038Z,97182.38
2022-09-14T21:33:19.447Z,97175.22
2022-09-14T21:35:45.758Z,97184.28
2022-09-14T21:38:12.071Z,97181.13
2022-09-14T21:40:38.706Z,97177.53
2022-09-14T21:43:05.036Z,97185.88
2022-09-14T21:45:31.437Z,97183.47
2022-09-14T21:47:57.754Z,97176.28
2022-09-14T21:50:24.069Z,97182.69
2022-09-14T21:52:50.397Z,97182.72
2022-09-14T21:55:16.710Z,97185.50
2022-09-14T21:57:43.054Z,97188.31
2022-09-14T22:00:09.932Z,97185.09
2022-09-14T22:02:36.311Z,97185.94
2022-09-14T22:05:03.809Z,97181.56
2022-09-14T22:07:30.153Z,97182.38
2022-09-14T22:09:56.847Z,97173.59
2022-09-14T22:12:23.251Z,97181.19
2022-09-14T22:14:49.728Z,97188.75
2022-09-14T22:17:16.396Z,97186.38
2022-09-14T22:19:42.759Z,97185.56
2022-09-14T22:22:09.346Z,97178.44
2022-09-14T22:24:38.288Z,97176.44
2022-09-14T22:27:06.194Z,97180.44
2022-09-14T22:29:32.891Z,97183.59
2022-09-14T22:32:00.115Z,97184.03
2022-09-14T22:34:26.537Z,97178.44
2022-09-14T22:36:53.201Z,97177.22
2022-09-14T22:39:19.525Z,97185.56
2022-09-14T22:41:45.931Z,97178.78
2022-09-14T22:44:12.304Z,97175.22
2022-09-14T22:46:38.826Z,97169.66
2022-09-14T22:49:05.167Z,97172.78
2022-09-14T22:51:31.511Z,97168.03
2022-09-14T22:53:57.995Z,97167.66
2022-09-14T22:56:25.364Z,97158.50
2022-09-14T22:58:51.799Z,97156.09
2022-09-14T23:01:19.236Z,97158.50
2022-09-14T23:03:45.583Z,97152.13
2022-09-14T23:06:11.915Z,97161.25
2022-09-14T23:08:38.329Z,97164.00
2022-09-14T23:11:05.496Z,97165.59
2022-09-14T23:13:32.724Z,97169.53
2022-09-14T23:16:01.044Z,97163.94
2022-09-14T23:18:27.884Z,97162.00
2022-09-14T23:20:54.217Z,97169.97
2022-09-14T23:23:20.535Z,97173.97
2022-09-14T23:25:47.007Z,97173.94
2022-09-14T23:28:13.353Z,97177.50
2022-09-14T23:30:39.819Z,97186.25
2022-09-14T23:33:06.653Z,97182.25
2022-09-14T23:35:36.999Z,97185.47
2022-09-14T23:38:04.133Z,97192.97
2022-09-14T23:40:30.541Z,97185.03
2022-09-14T23:42:56.899Z,97186.19
2022-09-14T23:45:23.215Z,97193.34
2022-09-14T23:47:49.567Z,97192.53
2022-09-14T23:50:15.884Z,97190.97
2022-09-14T23:52:42.269Z,97204.84
2022-09-14T23:55:08.739Z,97195.66
2022-09-14T23:57:36.548Z,97191.72
